createdAt,value
2023-08-29T00:02:18.342Z,100913.09
2023-08-29T00:04:45.198Z,100908.59
2023-08-29T00:07:12.079Z,100902.41
2023-08-29T00:09:39.078Z,100903.47
2023-08-29T00:12:06.389Z,100897.94
2023-08-29T00:14:33.268Z,100897.31
2023-08-29T00:17:00.160Z,100893.47
2023-08-29T00:19:27.073Z,100893.47
2023-08-29T00:21:53.932Z,100890.69
2023-08-29T00:24:21.010Z,100882.75
2023-08-29T00:26:47.922Z,100880.66
2023-08-29T00:29:14.763Z,100877.22
2023-08-29T00:31:41.706Z,100877.22
2023-08-29T00:34:08.877Z,100882.75
2023-08-29T00:36:35.769Z,100876.59
2023-08-29T00:39:03.938Z,100878.31
2023-08-29T00:41:31.851Z,100885.75
2023-08-29T00:43:58.774Z,100877.69
2023-08-29T00:46:27.226Z,100869.56
2023-08-29T00:48:56.217Z,100874.25
2023-08-29T00:51:24.915Z,100870.41
2023-08-29T00:53:51.947Z,100864.00
2023-08-29T00:56:19.243Z,100869.78
2023-08-29T00:58:46.752Z,100865.06
2023-08-29T01:01:18.177Z,100872.56
2023-08-29T01:03:46.632Z,100871.72
2023-08-29T01:06:16.903Z,100865.28
2023-08-29T01:08:47.186Z,100865.75
2023-08-29T01:11:26.929Z,100869.56
2023-08-29T01:14:37.075Z,100871.88
2023-08-29T01:17:12.180Z,100867.41
2023-08-29T01:19:43.206Z,100867.44
2023-08-29T01:22:28.740Z,100869.97
2023-08-29T01:25:35.632Z,100873.81
2023-08-29T01:28:04.102Z,100867.44
2023-08-29T01:30:33.812Z,100877.06
2023-08-29T01:33:01.461Z,100871.72
2023-08-29T01:35:28.446Z,100871.72
2023-08-29T01:37:55.347Z,100872.16
2023-08-29T01:40:23.950Z,100868.31
2023-08-29T01:42:51.541Z,100874.72
2023-08-29T01:45:18.514Z,100884.13
2023-08-29T01:47:45.484Z,100876.66
2023-08-29T01:50:14.827Z,100876.66
2023-08-29T01:52:42.217Z,100875.16
2023-08-29T01:55:09.485Z,100889.69
2023-08-29T01:57:37.528Z,100880.94
2023-08-29T02:00:05.706Z,100885.41
2023-08-29T02:02:41.437Z,100884.56
2023-08-29T02:05:09.076Z,100890.94
2023-08-29T02:07:36.547Z,100889.28
2023-08-29T02:10:04.091Z,100892.03
2023-08-29T02:12:30.957Z,100890.94
2023-08-29T02:14:57.863Z,100893.94
2023-08-29T02:17:24.941Z,100893.09
2023-08-29T02:19:51.914Z,100898.66
2023-08-29T02:22:18.868Z,100898.66
2023-08-29T02:24:48.798Z,100904.19
2023-08-29T02:27:15.834Z,100910.81
2023-08-29T02:29:42.778Z,100906.13
2023-08-29T02:32:09.744Z,100908.03
2023-08-29T02:34:36.726Z,100917.44
2023-08-29T02:37:04.184Z,100917.88
2023-08-29T02:39:31.652Z,100921.25
2023-08-29T02:41:58.858Z,100923.00
2023-08-29T02:44:27.488Z,100924.91
2023-08-29T02:46:54.695Z,100926.19
2023-08-29T02:49:21.865Z,100934.50
2023-08-29T02:51:49.549Z,100934.50
2023-08-29T02:54:16.493Z,100934.50
2023-08-29T02:56:46.657Z,100939.22
2023-08-29T02:59:13.857Z,100935.59
2023-08-29T03:01:40.747Z,100938.38
2023-08-29T03:04:07.740Z,100937.75
2023-08-29T03:06:36.709Z,100940.06
2023-08-29T03:09:04.420Z,100938.38
2023-08-29T03:11:31.366Z,100935.59
2023-08-29T03:13:59.251Z,100943.91
2023-08-29T03:16:26.203Z,100939.22
2023-08-29T03:18:53.417Z,100939.44
2023-08-29T03:21:20.457Z,100924.91
2023-08-29T03:23:47.476Z,100925.75
2023-08-29T03:26:14.422Z,100922.16
2023-08-29T03:28:42.881Z,100923.88
2023-08-29T03:31:18.111Z,100915.75
2023-08-29T03:33:46.191Z,100903.78
2023-08-29T03:36:13.298Z,100901.88
2023-08-29T03:38:43.191Z,100897.41
2023-08-29T03:41:10.214Z,100897.41
2023-08-29T03:43:37.844Z,100900.16
2023-08-29T03:46:07.804Z,100894.00
2023-08-29T03:48:37.173Z,100887.16
2023-08-29T03:51:07.761Z,100879.91
2023-08-29T03:53:39.183Z,100874.34
2023-08-29T03:56:10.652Z,100865.41
2023-08-29T03:58:38.048Z,100870.97
2023-08-29T04:01:05.720Z,100870.09
2023-08-29T04:03:33.562Z,100869.25
2023-08-29T04:06:02.630Z,100869.25
2023-08-29T04:08:29.666Z,100863.69
2023-08-29T04:10:57.997Z,100863.06
2023-08-29T04:13:25.354Z,100851.75
2023-08-29T04:15:52.310Z,100854.75
2023-08-29T04:18:19.294Z,100852.81
2023-08-29T04:20:46.219Z,100849.19
2023-08-29T04:23:13.483Z,100846.41
2023-08-29T04:25:40.421Z,100842.81
2023-08-29T04:28:08.034Z,100840.25
2023-08-29T04:30:36.580Z,100842.81
2023-08-29T04:33:04.486Z,100839.16
2023-08-29T04:35:31.521Z,100847.47
2023-08-29T04:37:58.565Z,100837.47
2023-08-29T04:40:25.477Z,100839.63
2023-08-29T04:42:52.798Z,100832.34
2023-08-29T04:45:20.812Z,100829.56
2023-08-29T04:47:48.603Z,100832.13
2023-08-29T04:50:16.216Z,100842.38
2023-08-29T04:52:43.758Z,100838.13
2023-08-29T04:55:11.481Z,100840.66
2023-08-29T04:57:38.676Z,100829.56
2023-08-29T05:00:08.044Z,100842.59
2023-08-29T05:02:35.107Z,100840.66
2023-08-29T05:05:02.210Z,100842.81
2023-08-29T05:07:29.116Z,100847.31
2023-08-29T05:09:57.219Z,100845.59
2023-08-29T05:12:24.598Z,100849.19
2023-08-29T05:14:54.844Z,100856.69
2023-08-29T05:17:22.392Z,100856.69
2023-08-29T05:19:50.666Z,100841.13
2023-08-29T05:22:17.840Z,100853.91
2023-08-29T05:24:44.871Z,100852.22
2023-08-29T05:27:11.755Z,100850.50
2023-08-29T05:29:40.047Z,100844.97
2023-08-29T05:32:07.213Z,100845.81
2023-08-29T05:34:34.447Z,100850.50
2023-08-29T05:37:01.632Z,100852.66
2023-08-29T05:39:28.504Z,100861.59
2023-08-29T05:41:55.413Z,100856.06
2023-08-29T05:44:22.287Z,100857.78
2023-08-29T05:46:49.205Z,100860.75
2023-08-29T05:49:17.535Z,100861.59
2023-08-29T05:51:44.453Z,100864.38
2023-08-29T05:54:11.465Z,100863.31
2023-08-29T05:56:39.089Z,100868.19
2023-08-29T05:59:06.794Z,100869.91
2023-08-29T06:01:36.340Z,100861.59
2023-08-29T06:04:05.663Z,100868.88
2023-08-29T06:06:33.078Z,100860.75
2023-08-29T06:09:00.479Z,100861.38
2023-08-29T06:11:30.232Z,100862.22
2023-08-29T06:13:57.100Z,100859.47
2023-08-29T06:16:24.055Z,100857.78
2023-08-29T06:18:51.041Z,100860.28
2023-08-29T06:21:18.395Z,100862.00
2023-08-29T06:23:45.303Z,100866.50
2023-08-29T06:26:12.421Z,100863.94
2023-08-29T06:28:39.392Z,100868.41
2023-08-29T06:31:08.928Z,100866.50
2023-08-29T06:33:38.009Z,100866.25
2023-08-29T06:36:05.282Z,100873.53
2023-08-29T06:38:34.111Z,100864.13
2023-08-29T06:41:04.179Z,100871.38
2023-08-29T06:43:31.580Z,100867.56
2023-08-29T06:45:58.540Z,100857.50
2023-08-29T06:48:25.420Z,100862.84
2023-08-29T06:50:52.416Z,100858.16
2023-08-29T06:53:19.329Z,100859.88
2023-08-29T06:55:51.153Z,100864.53
2023-08-29T06:58:18.153Z,100865.81
2023-08-29T07:00:45.106Z,100860.28
2023-08-29T07:03:13.437Z,100862.84
2023-08-29T07:05:40.877Z,100858.97
2023-08-29T07:08:08.369Z,100853.44
2023-08-29T07:10:35.654Z,100854.06
2023-08-29T07:13:02.655Z,100858.53
2023-08-29T07:15:29.563Z,100856.41
2023-08-29T07:17:56.638Z,100858.53
2023-08-29T07:20:23.666Z,100853.00
2023-08-29T07:22:50.576Z,100852.53
2023-08-29T07:25:19.326Z,100855.97
2023-08-29T07:27:46.247Z,100854.25
2023-08-29T07:30:16.510Z,100850.44
2023-08-29T07:32:45.326Z,100851.91
2023-08-29T07:35:12.468Z,100863.63
2023-08-29T07:37:39.362Z,100847.81
2023-08-29T07:40:06.817Z,100845.03
2023-08-29T07:42:33.716Z,100858.47
2023-08-29T07:45:00.958Z,100850.16
2023-08-29T07:47:28.174Z,100849.09
2023-08-29T07:49:55.056Z,100863.59
2023-08-29T07:52:22.001Z,100866.16
2023-08-29T07:54:48.919Z,100863.13
2023-08-29T07:57:15.876Z,100870.63
2023-08-29T07:59:43.020Z,100874.25
2023-08-29T08:02:10.060Z,100870.41
2023-08-29T08:04:38.137Z,100881.50
2023-08-29T08:07:05.280Z,100872.97
2023-08-29T08:09:32.698Z,100875.53
2023-08-29T08:11:59.666Z,100868.25
2023-08-29T08:14:26.527Z,100875.53
2023-08-29T08:16:53.488Z,100879.16
2023-08-29T08:19:20.477Z,100877.22
2023-08-29T08:21:48.886Z,100882.75
2023-08-29T08:24:17.823Z,100873.41
2023-08-29T08:26:44.909Z,100879.81
2023-08-29T08:29:11.822Z,100877.88
2023-08-29T08:31:39.276Z,100886.19
2023-08-29T08:34:06.170Z,100885.13
2023-08-29T08:36:33.133Z,100887.91
2023-08-29T08:38:59.991Z,100882.38
2023-08-29T08:41:27.197Z,100883.22
2023-08-29T08:43:56.583Z,100882.78
2023-08-29T08:46:24.052Z,100883.22
2023-08-29T08:48:51.367Z,100881.28
2023-08-29T08:51:22.216Z,100878.28
2023-08-29T08:53:54.026Z,100872.50
2023-08-29T08:56:21.626Z,100873.59
2023-08-29T08:58:48.754Z,100875.50
2023-08-29T09:01:15.719Z,100873.59
2023-08-29T09:03:44.569Z,100873.34
2023-08-29T09:06:14.005Z,100866.97
2023-08-29T09:08:41.531Z,100871.47
2023-08-29T09:11:09.775Z,100875.91
2023-08-29T09:13:45.962Z,100869.53
2023-08-29T09:16:13.807Z,100868.22
2023-08-29T09:18:44.950Z,100878.03
2023-08-29T09:21:20.118Z,100866.47
2023-08-29T09:23:47.150Z,100872.50
2023-08-29T09:26:14.849Z,100873.34
2023-08-29T09:28:42.147Z,100880.59
2023-08-29T09:31:11.992Z,100875.06
2023-08-29T09:33:40.425Z,100879.72
2023-08-29T09:36:08.123Z,100875.06
2023-08-29T09:38:36.203Z,100873.34
2023-08-29T09:41:03.594Z,100868.41
2023-08-29T09:43:31.637Z,100871.41
2023-08-29T09:46:00.566Z,100886.16
2023-08-29T09:48:29.182Z,100876.75
2023-08-29T09:50:59.737Z,100869.03
2023-08-29T09:53:29.995Z,100861.81
2023-08-29T09:56:10.944Z,100851.50
2023-08-29T09:58:39.999Z,100853.00
2023-08-29T10:01:10.665Z,100856.44
2023-08-29T10:03:41.367Z,100858.56
2023-08-29T10:06:12.679Z,100856.66
2023-08-29T10:08:56.274Z,100860.00
2023-08-29T10:11:24.468Z,100854.50
2023-08-29T10:13:52.081Z,100854.50
2023-08-29T10:16:20.471Z,100855.34
2023-08-29T10:18:49.766Z,100845.97
2023-08-29T10:21:19.325Z,100850.41
2023-08-29T10:23:47.557Z,100848.72
2023-08-29T10:26:15.513Z,100847.03
2023-08-29T10:28:44.074Z,100851.03
2023-08-29T10:31:12.354Z,100850.41
2023-08-29T10:33:39.455Z,100843.81
2023-08-29T10:36:10.495Z,100848.88
2023-08-29T10:38:41.207Z,100834.78
2023-08-29T10:41:08.204Z,100836.09
2023-08-29T10:43:36.809Z,100843.34
2023-08-29T10:46:13.172Z,100844.16
2023-08-29T10:48:40.211Z,100846.13
2023-08-29T10:51:12.480Z,100839.91
2023-08-29T10:53:54.588Z,100838.19
2023-08-29T10:56:39.437Z,100835.81
2023-08-29T10:59:07.165Z,100835.66
2023-08-29T11:01:34.910Z,100822.84
2023-08-29T11:04:13.830Z,100822.00
2023-08-29T11:06:55.440Z,100821.06
2023-08-29T11:09:24.896Z,100813.44
2023-08-29T11:12:14.115Z,100814.41
2023-08-29T11:14:56.252Z,100809.94
2023-08-29T11:17:24.889Z,100813.19
2023-08-29T11:19:59.881Z,100814.25
2023-08-29T11:22:30.328Z,100807.44
2023-08-29T11:24:58.790Z,100803.59
2023-08-29T11:27:30.234Z,100806.56
2023-08-29T11:30:19.572Z,100803.59
2023-08-29T11:32:52.710Z,100798.84
2023-08-29T11:35:19.875Z,100795.88
2023-08-29T11:37:46.766Z,100801.44
2023-08-29T11:40:17.989Z,100797.59
2023-08-29T11:43:12.662Z,100801.22
2023-08-29T11:45:47.130Z,100794.31
2023-08-29T11:48:32.464Z,100792.81
2023-08-29T11:51:09.146Z,100794.53
2023-08-29T11:53:39.936Z,100796.69
2023-08-29T11:56:11.119Z,100792.19
2023-08-29T11:58:40.186Z,100798.22
2023-08-29T12:01:09.137Z,100789.88
2023-08-29T12:03:38.553Z,100779.63
2023-08-29T12:06:12.719Z,100786.81
2023-08-29T12:08:45.647Z,100785.56
2023-08-29T12:11:16.383Z,100780.03
2023-08-29T12:14:01.651Z,100779.28
2023-08-29T12:16:29.673Z,100776.16
2023-08-29T12:19:14.974Z,100782.50
2023-08-29T12:21:41.904Z,100776.16
2023-08-29T12:24:13.243Z,100778.69
2023-08-29T12:26:40.168Z,100779.19
2023-08-29T12:29:07.082Z,100776.63
2023-08-29T12:31:34.863Z,100770.19
2023-08-29T12:34:01.908Z,100772.75
2023-08-29T12:36:28.809Z,100773.84
2023-08-29T12:38:55.712Z,100759.97
2023-08-29T12:41:23.829Z,100759.97
2023-08-29T12:43:50.759Z,100763.56
2023-08-29T12:46:17.780Z,100759.97
2023-08-29T12:48:44.727Z,100750.53
2023-08-29T12:51:12.034Z,100744.97
2023-08-29T12:53:38.952Z,100744.13
2023-08-29T12:56:05.976Z,100742.19
2023-08-29T12:58:32.878Z,100738.59
2023-08-29T13:00:59.813Z,100739.44
2023-08-29T13:03:26.835Z,100733.88
2023-08-29T13:05:54.472Z,100739.44
2023-08-29T13:08:21.352Z,100741.13
2023-08-29T13:10:48.330Z,100738.13
2023-08-29T13:13:15.314Z,100730.03
2023-08-29T13:15:50.859Z,100730.25
2023-08-29T13:18:19.695Z,100721.09
2023-08-29T13:20:46.800Z,100725.31
2023-08-29T13:23:13.841Z,100713.38
2023-08-29T13:25:40.901Z,100709.50
2023-08-29T13:28:08.147Z,100705.66
2023-08-29T13:30:36.216Z,100700.09
2023-08-29T13:33:04.452Z,100703.94
2023-08-29T13:35:31.548Z,100702.88
2023-08-29T13:37:58.438Z,100700.94
2023-08-29T13:40:25.313Z,100692.59
2023-08-29T13:42:53.420Z,100691.78
2023-08-29T13:45:20.701Z,100690.69
2023-08-29T13:47:48.129Z,100685.16
2023-08-29T13:50:15.220Z,100684.28
2023-08-29T13:52:42.089Z,100679.59
2023-08-29T13:55:09.325Z,100686.22
2023-08-29T13:57:36.304Z,100683.22
2023-08-29T14:00:08.700Z,100678.28
2023-08-29T14:02:41.775Z,100681.28
2023-08-29T14:05:09.557Z,100681.28
2023-08-29T14:07:37.581Z,100674.03
2023-08-29T14:10:05.211Z,100686.84
2023-08-29T14:12:32.147Z,100682.38
2023-08-29T14:14:59.071Z,100678.50
2023-08-29T14:17:26.165Z,100676.81
2023-08-29T14:19:53.877Z,100675.72
2023-08-29T14:22:20.791Z,100671.50
2023-08-29T14:24:48.210Z,100674.03
2023-08-29T14:27:15.162Z,100675.09
2023-08-29T14:29:42.039Z,100662.94
2023-08-29T14:32:09.003Z,100668.47
2023-08-29T14:34:35.886Z,100672.09
2023-08-29T14:37:03.144Z,100674.03
2023-08-29T14:39:30.015Z,100677.88
2023-08-29T14:41:56.991Z,100680.44
2023-08-29T14:44:24.033Z,100676.16
2023-08-29T14:46:51.048Z,100679.59
2023-08-29T14:49:18.127Z,100676.81
2023-08-29T14:51:45.211Z,100684.28
2023-08-29T14:54:12.234Z,100686.44
2023-08-29T14:56:39.360Z,100688.16
2023-08-29T14:59:06.663Z,100689.84
2023-08-29T15:01:37.720Z,100681.72
2023-08-29T15:04:06.535Z,100686.22
2023-08-29T15:06:34.237Z,100696.25
2023-08-29T15:09:01.142Z,100692.84
2023-08-29T15:11:28.142Z,100690.69
2023-08-29T15:13:55.051Z,100700.09
2023-08-29T15:16:22.027Z,100692.84
2023-08-29T15:18:48.989Z,100695.59
2023-08-29T15:21:18.094Z,100702.25
2023-08-29T15:23:46.847Z,100700.09
2023-08-29T15:26:13.837Z,100710.38
2023-08-29T15:28:40.817Z,100710.38
2023-08-29T15:31:07.753Z,100715.06
2023-08-29T15:33:35.125Z,100714.22
2023-08-29T15:36:02.014Z,100710.59
2023-08-29T15:38:30.189Z,100709.50
2023-08-29T15:40:57.239Z,100705.03
2023-08-29T15:43:27.324Z,100702.25
2023-08-29T15:45:56.209Z,100697.78
2023-08-29T15:48:23.416Z,100695.88
2023-08-29T15:50:55.230Z,100698.38
2023-08-29T15:53:22.376Z,100705.03
2023-08-29T15:55:49.425Z,100707.81
2023-08-29T15:58:17.897Z,100710.38
2023-08-29T16:00:44.890Z,100703.94
2023-08-29T16:03:12.024Z,100707.81
2023-08-29T16:05:39.049Z,100702.25
2023-08-29T16:08:06.513Z,100703.94
2023-08-29T16:10:33.710Z,100703.94
2023-08-29T16:13:00.989Z,100702.25
2023-08-29T16:15:28.158Z,100703.09
2023-08-29T16:17:55.114Z,100703.94
2023-08-29T16:20:22.279Z,100709.50
2023-08-29T16:22:49.296Z,100700.31
2023-08-29T16:25:16.379Z,100696.72
2023-08-29T16:27:43.585Z,100701.16
2023-08-29T16:30:12.064Z,100698.38
2023-08-29T16:32:42.960Z,100705.66
2023-08-29T16:35:09.921Z,100701.16
2023-08-29T16:37:40.866Z,100702.88
2023-08-29T16:40:08.997Z,100704.81
2023-08-29T16:42:36.539Z,100703.94
2023-08-29T16:45:05.445Z,100700.09
2023-08-29T16:47:32.792Z,100708.22
2023-08-29T16:49:59.701Z,100703.50
2023-08-29T16:52:28.110Z,100693.72
2023-08-29T16:54:55.177Z,100700.94
2023-08-29T16:57:22.223Z,100699.03
2023-08-29T17:00:10.999Z,100698.28
2023-08-29T17:02:38.623Z,100699.66
2023-08-29T17:05:06.176Z,100706.06
2023-08-29T17:07:33.133Z,100694.94
2023-08-29T17:10:00.797Z,100695.78
2023-08-29T17:12:28.247Z,100697.50
2023-08-29T17:14:55.137Z,100691.94
2023-08-29T17:17:23.158Z,100687.44
2023-08-29T17:19:50.334Z,100686.38
2023-08-29T17:22:17.313Z,100689.16
2023-08-29T17:24:44.294Z,100684.22
2023-08-29T17:27:11.155Z,100680.34
2023-08-29T17:29:38.056Z,100685.91
2023-08-29T17:32:05.723Z,100685.91
2023-08-29T17:34:52.974Z,100679.28
2023-08-29T17:37:43.704Z,100691.00
2023-08-29T17:40:31.018Z,100686.56
2023-08-29T17:43:18.152Z,100696.56
2023-08-29T17:46:07.140Z,100684.00
2023-08-29T17:48:54.418Z,100691.00
2023-08-29T17:51:41.583Z,100676.50
2023-08-29T17:54:29.496Z,100686.06
2023-08-29T17:57:16.625Z,100686.06
2023-08-29T18:00:06.105Z,100684.16
2023-08-29T18:02:53.279Z,100680.75
2023-08-29T18:05:55.130Z,100692.44
2023-08-29T18:08:44.002Z,100691.63
2023-08-29T18:11:31.290Z,100696.56
2023-08-29T18:14:18.481Z,100693.19
2023-08-29T18:17:05.613Z,100690.41
2023-08-29T18:19:52.806Z,100693.19
2023-08-29T18:22:39.903Z,100690.16
2023-08-29T18:25:08.103Z,100693.19
2023-08-29T18:27:36.306Z,100691.47
2023-08-29T18:30:04.472Z,100691.47
2023-08-29T18:32:32.865Z,100685.91
2023-08-29T18:35:12.996Z,100685.91
2023-08-29T18:37:39.882Z,100687.00
2023-08-29T18:40:08.390Z,100689.78
2023-08-29T18:42:35.393Z,100688.06
2023-08-29T18:45:21.033Z,100692.34
2023-08-29T18:48:09.472Z,100693.41
2023-08-29T18:50:57.431Z,100696.19
2023-08-29T18:53:44.580Z,100689.78
2023-08-29T18:56:31.750Z,100700.88
2023-08-29T18:59:20.142Z,100700.03
2023-08-29T19:02:07.488Z,100706.28
2023-08-29T19:04:54.687Z,100710.81
2023-08-29T19:07:44.368Z,100705.69
2023-08-29T19:10:31.958Z,100704.88
2023-08-29T19:13:19.098Z,100703.19
2023-08-29T19:16:06.277Z,100703.19
2023-08-29T19:18:53.451Z,100703.19
2023-08-29T19:21:40.639Z,100704.03
2023-08-29T19:24:27.826Z,100705.97
2023-08-29T19:27:22.662Z,100696.97
2023-08-29T19:30:14.893Z,100700.41
2023-08-29T19:33:04.858Z,100703.41
2023-08-29T19:35:52.253Z,100699.53
2023-08-29T19:38:41.474Z,100693.13
2023-08-29T19:41:28.678Z,100697.63
2023-08-29T19:44:17.484Z,100688.19
2023-08-29T19:47:06.854Z,100690.97
2023-08-29T19:49:54.568Z,100689.91
2023-08-29T19:52:42.133Z,100693.75
2023-08-29T19:55:30.721Z,100690.97
2023-08-29T19:58:18.709Z,100692.06
2023-08-29T20:01:07.309Z,100687.34
2023-08-29T20:03:54.585Z,100683.75
2023-08-29T20:06:43.296Z,100680.97
2023-08-29T20:09:30.630Z,100677.53
2023-08-29T20:12:17.787Z,100678.41
2023-08-29T20:15:05.501Z,100674.75
2023-08-29T20:17:52.878Z,100670.31
2023-08-29T20:20:42.045Z,100673.09
2023-08-29T20:23:29.711Z,100671.38
2023-08-29T20:26:18.603Z,100666.28
2023-08-29T20:29:05.847Z,100671.59
2023-08-29T20:31:52.989Z,100670.75
2023-08-29T20:34:41.143Z,100667.97
2023-08-29T20:37:28.823Z,100660.09
2023-08-29T20:40:16.028Z,100662.66
2023-08-29T20:43:04.677Z,100658.81
2023-08-29T20:45:51.851Z,100657.97
2023-08-29T20:48:39.031Z,100657.09
2023-08-29T20:51:26.321Z,100656.25
2023-08-29T20:54:13.486Z,100661.81
2023-08-29T20:57:00.587Z,100656.25
2023-08-29T20:59:47.908Z,100653.47
2023-08-29T21:02:36.480Z,100649.84
2023-08-29T21:05:23.869Z,100642.38
2023-08-29T21:08:11.331Z,100654.53
2023-08-29T21:10:58.666Z,100643.44
2023-08-29T21:13:45.855Z,100636.19
2023-08-29T21:16:33.083Z,100647.31
2023-08-29T21:19:20.655Z,100642.19
2023-08-29T21:22:07.761Z,100650.53
2023-08-29T21:24:54.909Z,100650.31
2023-08-29T21:27:42.018Z,100643.28
2023-08-29T21:30:29.109Z,100643.91
2023-08-29T21:33:16.386Z,100635.81
2023-08-29T21:36:04.274Z,100643.28
2023-08-29T21:38:51.421Z,100637.97
2023-08-29T21:41:41.142Z,100645.66
2023-08-29T21:44:28.320Z,100637.97
2023-08-29T21:47:15.403Z,100633.69
2023-08-29T21:50:02.562Z,100634.16
2023-08-29T21:52:49.669Z,100643.13
2023-08-29T21:55:39.477Z,100628.63
2023-08-29T21:58:26.580Z,100634.16
2023-08-29T22:01:13.759Z,100634.16
2023-08-29T22:04:00.871Z,100620.50
2023-08-29T22:06:48.365Z,100626.06
2023-08-29T22:09:35.466Z,100622.66
2023-08-29T22:12:22.572Z,100620.13
2023-08-29T22:15:11.037Z,100622.28
2023-08-29T22:17:58.255Z,100615.88
2023-08-29T22:20:45.440Z,100612.25
2023-08-29T22:23:33.707Z,100606.06
2023-08-29T22:26:20.851Z,100609.06
2023-08-29T22:29:07.968Z,100606.91
2023-08-29T22:31:55.169Z,100608.22
2023-08-29T22:34:42.971Z,100606.50
2023-08-29T22:37:30.085Z,100603.72
2023-08-29T22:40:18.080Z,100601.22
2023-08-29T22:43:06.101Z,100599.28
2023-08-29T22:45:56.422Z,100601.59
2023-08-29T22:48:43.540Z,100600.28
2023-08-29T22:51:30.674Z,100592.81
2023-08-29T22:54:17.854Z,100595.41
2023-08-29T22:57:06.408Z,100595.88
2023-08-29T22:59:53.555Z,100589.50
2023-08-29T23:02:40.907Z,100588.81
2023-08-29T23:05:28.221Z,100586.28
2023-08-29T23:08:15.437Z,100587.13
2023-08-29T23:11:02.815Z,100589.91
2023-08-29T23:13:50.215Z,100583.50
2023-08-29T23:16:38.432Z,100580.09
2023-08-29T23:19:26.727Z,100574.53
2023-08-29T23:22:13.871Z,100578.41
2023-08-29T23:25:05.435Z,100570.69
2023-08-29T23:27:52.890Z,100563.53
2023-08-29T23:30:40.039Z,100564.75
2023-08-29T23:33:27.351Z,100554.97
2023-08-29T23:36:14.493Z,100553.88
2023-08-29T23:39:01.598Z,100551.94
2023-08-29T23:41:49.037Z,100543.88
2023-08-29T23:44:36.265Z,100547.72
2023-08-29T23:47:23.442Z,100543.88
2023-08-29T23:50:11.570Z,100542.16
2023-08-29T23:53:00.187Z,100529.34
2023-08-29T23:55:47.448Z,100534.91
2023-08-29T23:58:34.634Z,100525.97
